createdAt,value
2019-02-17T00:01:43.545Z,65.22
2019-02-17T00:04:11.069Z,65.41
2019-02-17T00:06:38.560Z,65.29
2019-02-17T00:09:05.982Z,65.39
2019-02-17T00:11:33.430Z,65.19
2019-02-17T00:14:00.847Z,65.33
2019-02-17T00:16:28.244Z,65.50
2019-02-17T00:18:55.676Z,65.51
2019-02-17T00:21:23.190Z,65.39
2019-02-17T00:23:50.587Z,65.41
2019-02-17T00:26:18.188Z,65.75
2019-02-17T00:28:46.019Z,65.63
2019-02-17T00:31:13.484Z,65.59
2019-02-17T00:33:40.883Z,65.64
2019-02-17T00:36:08.475Z,65.72
2019-02-17T00:38:35.889Z,65.65
2019-02-17T00:41:03.305Z,65.84
2019-02-17T00:43:30.785Z,66.04
2019-02-17T00:45:58.254Z,66.06
2019-02-17T00:48:25.666Z,66.23
2019-02-17T00:50:53.107Z,66.58
2019-02-17T00:53:20.531Z,66.65
2019-02-17T00:55:48.735Z,66.86
2019-02-17T00:58:16.239Z,66.89
2019-02-17T01:00:43.664Z,67.08
2019-02-17T01:03:11.287Z,67.14
2019-02-17T01:05:38.783Z,67.29
2019-02-17T01:08:06.214Z,67.53
2019-02-17T01:10:33.649Z,67.70
2019-02-17T01:13:01.156Z,67.93
2019-02-17T01:15:28.551Z,67.98
2019-02-17T01:17:55.950Z,67.93
2019-02-17T01:20:23.380Z,67.97
2019-02-17T01:22:50.815Z,68.06
2019-02-17T01:25:18.247Z,68.17
2019-02-17T01:27:45.655Z,68.06
2019-02-17T01:30:13.848Z,68.16
2019-02-17T01:32:41.912Z,68.07
2019-02-17T01:35:09.354Z,67.98
2019-02-17T01:37:36.749Z,68.18
2019-02-17T01:40:04.159Z,68.26
2019-02-17T01:42:31.575Z,68.33
2019-02-17T01:44:59.072Z,68.13
2019-02-17T01:47:26.541Z,68.04
2019-02-17T01:49:53.952Z,68.14
2019-02-17T01:52:21.648Z,68.23
2019-02-17T01:54:49.059Z,68.30
2019-02-17T01:57:16.499Z,68.34
2019-02-17T01:59:43.898Z,68.37
2019-02-17T02:02:12.085Z,68.34
2019-02-17T02:04:39.520Z,68.28
2019-02-17T02:07:06.933Z,68.55
2019-02-17T02:09:34.470Z,68.69
2019-02-17T02:12:02.208Z,68.81
2019-02-17T02:14:29.701Z,68.90
2019-02-17T02:16:57.109Z,68.92
2019-02-17T02:19:24.537Z,68.72
2019-02-17T02:21:51.947Z,68.56
2019-02-17T02:24:19.422Z,68.53
2019-02-17T02:26:46.829Z,68.73
2019-02-17T02:29:14.283Z,68.77
2019-02-17T02:31:41.695Z,68.93
2019-02-17T02:34:09.114Z,68.71
2019-02-17T02:36:36.551Z,68.74
2019-02-17T02:39:03.967Z,68.84
2019-02-17T02:41:34.688Z,68.98
2019-02-17T02:43:58.870Z,69.00
2019-02-17T02:46:26.266Z,69.22
2019-02-17T02:48:53.712Z,69.41
2019-02-17T02:51:21.120Z,69.46
2019-02-17T02:53:48.518Z,69.55
2019-02-17T02:56:15.941Z,69.73
2019-02-17T02:58:43.342Z,69.79
2019-02-17T03:01:10.762Z,69.83
2019-02-17T03:03:38.535Z,69.87
2019-02-17T03:06:05.942Z,69.96
2019-02-17T03:08:33.449Z,70.36
2019-02-17T03:11:00.863Z,70.53
2019-02-17T03:13:28.363Z,70.33
2019-02-17T03:15:55.828Z,70.40
2019-02-17T03:18:23.280Z,70.48
2019-02-17T03:20:50.710Z,70.47
2019-02-17T03:23:18.118Z,70.38
2019-02-17T03:25:45.582Z,70.24
2019-02-17T03:28:12.956Z,70.23
2019-02-17T03:30:40.368Z,70.15
2019-02-17T03:33:07.891Z,70.14
2019-02-17T03:35:35.264Z,70.04
2019-02-17T03:38:02.675Z,70.12
2019-02-17T03:40:30.082Z,70.26
2019-02-17T03:42:57.640Z,70.30
2019-02-17T03:45:25.078Z,70.32
2019-02-17T03:47:52.483Z,70.20
2019-02-17T03:50:19.934Z,70.02
2019-02-17T03:52:47.340Z,69.97
2019-02-17T03:55:14.748Z,69.95
2019-02-17T03:57:42.151Z,69.97
2019-02-17T04:00:16.919Z,69.92
2019-02-17T04:02:36.996Z,69.73
2019-02-17T04:05:04.393Z,69.66
2019-02-17T04:07:31.874Z,69.85
2019-02-17T04:09:59.372Z,70.07
2019-02-17T04:12:26.835Z,70.34
2019-02-17T04:14:54.235Z,70.25
2019-02-17T04:17:21.640Z,70.19
2019-02-17T04:19:49.044Z,70.10
2019-02-17T04:22:16.432Z,70.20
2019-02-17T04:24:43.906Z,70.25
2019-02-17T04:27:11.301Z,70.07
2019-02-17T04:29:38.698Z,69.99
2019-02-17T04:32:06.089Z,70.02
2019-02-17T04:34:33.508Z,70.00
2019-02-17T04:37:00.894Z,70.16
2019-02-17T04:39:28.310Z,70.29
2019-02-17T04:41:55.727Z,70.58
2019-02-17T04:44:23.133Z,70.80
2019-02-17T04:46:50.550Z,71.00
2019-02-17T04:49:17.972Z,70.95
2019-02-17T04:51:45.425Z,70.83
2019-02-17T04:54:12.812Z,70.61
2019-02-17T04:56:40.214Z,70.34
2019-02-17T04:59:07.618Z,70.23
2019-02-17T05:01:35.009Z,70.11
2019-02-17T05:04:02.446Z,70.08
2019-02-17T05:06:29.867Z,70.13
2019-02-17T05:08:57.821Z,70.25
2019-02-17T05:11:25.215Z,70.33
2019-02-17T05:13:52.608Z,70.56
2019-02-17T05:16:20.099Z,70.55
2019-02-17T05:18:47.472Z,70.45
2019-02-17T05:21:15.038Z,70.57
2019-02-17T05:23:42.557Z,70.67
2019-02-17T05:26:09.965Z,70.77
2019-02-17T05:28:37.404Z,71.03
2019-02-17T05:31:04.859Z,71.21
2019-02-17T05:33:32.314Z,71.13
2019-02-17T05:35:59.781Z,71.26
2019-02-17T05:38:27.183Z,71.31
2019-02-17T05:40:54.605Z,71.17
2019-02-17T05:43:22.002Z,71.21
2019-02-17T05:45:49.412Z,71.25
2019-02-17T05:48:16.848Z,71.40
2019-02-17T05:50:44.315Z,71.46
2019-02-17T05:53:11.712Z,71.36
2019-02-17T05:55:39.126Z,71.43
2019-02-17T05:58:06.524Z,71.27
2019-02-17T06:00:33.922Z,71.34
2019-02-17T06:03:01.398Z,71.40
2019-02-17T06:05:28.805Z,71.55
2019-02-17T06:07:56.250Z,71.63
2019-02-17T06:10:23.676Z,71.56
2019-02-17T06:12:51.082Z,71.52
2019-02-17T06:15:18.476Z,71.71
2019-02-17T06:17:45.939Z,71.72
2019-02-17T06:20:13.338Z,71.64
2019-02-17T06:22:40.769Z,71.45
2019-02-17T06:25:08.148Z,71.57
2019-02-17T06:27:35.562Z,71.40
2019-02-17T06:30:03.020Z,71.26
2019-02-17T06:32:30.482Z,71.29
2019-02-17T06:34:57.896Z,71.28
2019-02-17T06:37:25.324Z,71.17
2019-02-17T06:39:53.051Z,71.49
2019-02-17T06:42:20.458Z,71.24
2019-02-17T06:44:47.872Z,71.12
2019-02-17T06:47:15.781Z,71.09
2019-02-17T06:49:43.255Z,70.79
2019-02-17T06:52:10.672Z,70.54
2019-02-17T06:54:38.221Z,69.97
2019-02-17T06:57:06.574Z,68.58
2019-02-17T06:59:33.981Z,67.58
2019-02-17T07:02:01.400Z,66.74
2019-02-17T07:04:40.076Z,66.34
2019-02-17T07:07:07.571Z,65.36
2019-02-17T07:09:35.057Z,64.10
2019-02-17T07:12:02.504Z,63.55
2019-02-17T07:14:29.879Z,63.12
2019-02-17T07:16:57.308Z,61.73
2019-02-17T07:19:24.695Z,60.24
2019-02-17T07:21:52.131Z,59.28
2019-02-17T07:24:19.591Z,59.25
2019-02-17T07:26:47.044Z,57.97
2019-02-17T07:29:16.686Z,56.68
2019-02-17T07:31:42.111Z,55.42
2019-02-17T07:34:09.536Z,54.88
2019-02-17T07:36:36.944Z,54.62
2019-02-17T07:39:04.517Z,53.54
2019-02-17T07:41:31.900Z,52.42
2019-02-17T07:43:59.306Z,51.04
2019-02-17T07:46:26.712Z,49.73
2019-02-17T07:48:54.124Z,48.38
2019-02-17T07:51:21.519Z,47.42
2019-02-17T07:53:49.584Z,46.89
2019-02-17T07:56:16.997Z,46.34
2019-02-17T07:58:44.589Z,45.43
2019-02-17T08:01:11.974Z,44.20
2019-02-17T08:03:39.507Z,43.68
2019-02-17T08:06:07.862Z,43.68
2019-02-17T08:08:35.263Z,44.54
2019-02-17T08:11:04.315Z,45.12
2019-02-17T08:13:30.576Z,45.65
2019-02-17T08:15:57.992Z,44.73
2019-02-17T08:18:25.431Z,43.55
2019-02-17T08:20:52.947Z,42.82
2019-02-17T08:23:20.408Z,42.11
2019-02-17T08:25:47.820Z,41.84
2019-02-17T08:28:15.262Z,41.17
2019-02-17T08:30:42.725Z,40.50
2019-02-17T08:33:10.223Z,39.57
2019-02-17T08:35:37.638Z,39.04
2019-02-17T08:38:04.586Z,38.86
2019-02-17T08:40:31.543Z,38.66
2019-02-17T08:42:59.028Z,38.12
2019-02-17T08:45:26.457Z,37.73
2019-02-17T08:47:53.940Z,37.38
2019-02-17T08:50:21.409Z,37.33
2019-02-17T08:52:48.359Z,37.30
2019-02-17T08:55:15.306Z,37.77
2019-02-17T08:57:42.860Z,37.70
2019-02-17T09:00:10.526Z,37.13
2019-02-17T09:02:40.668Z,37.07
2019-02-17T09:05:05.947Z,36.63
2019-02-17T09:07:33.342Z,36.13
2019-02-17T09:10:00.770Z,35.76
2019-02-17T09:12:28.177Z,35.70
2019-02-17T09:14:55.692Z,36.15
2019-02-17T09:17:23.478Z,36.12
2019-02-17T09:19:51.050Z,35.64
2019-02-17T09:22:18.547Z,35.55
2019-02-17T09:24:46.003Z,35.34
2019-02-17T09:27:13.432Z,34.77
2019-02-17T09:29:40.938Z,34.59
2019-02-17T09:32:16.037Z,34.76
2019-02-17T09:34:34.824Z,34.73
2019-02-17T09:37:01.841Z,34.15
2019-02-17T09:39:28.868Z,34.43
2019-02-17T09:41:55.840Z,34.42
2019-02-17T09:44:22.798Z,34.47
2019-02-17T09:46:50.607Z,34.76
2019-02-17T09:49:18.018Z,34.11
2019-02-17T09:51:45.513Z,34.25
2019-02-17T09:54:12.462Z,33.94
2019-02-17T09:56:39.448Z,33.58
2019-02-17T09:59:06.866Z,33.17
2019-02-17T10:01:34.340Z,32.89
2019-02-17T10:04:01.788Z,32.47
2019-02-17T10:06:29.228Z,31.95
2019-02-17T10:08:56.635Z,31.65
2019-02-17T10:11:24.214Z,31.77
2019-02-17T10:13:51.630Z,31.33
2019-02-17T10:16:18.577Z,31.19
2019-02-17T10:18:45.551Z,30.97
2019-02-17T10:21:12.524Z,30.86
2019-02-17T10:23:39.930Z,30.31
2019-02-17T10:26:06.910Z,30.00
2019-02-17T10:28:42.078Z,29.86
2019-02-17T10:31:00.926Z,29.65
2019-02-17T10:33:29.190Z,29.92
2019-02-17T10:35:56.249Z,29.81
2019-02-17T10:38:23.223Z,29.25
2019-02-17T10:40:50.743Z,29.36
2019-02-17T10:43:18.160Z,29.63
2019-02-17T10:45:45.567Z,30.13
2019-02-17T10:48:12.513Z,29.77
2019-02-17T10:50:39.507Z,29.37
2019-02-17T10:53:07.104Z,29.54
2019-02-17T10:55:34.554Z,29.14
2019-02-17T10:58:02.013Z,29.19
2019-02-17T11:00:29.407Z,29.37
2019-02-17T11:02:56.991Z,29.42
2019-02-17T11:05:24.419Z,29.27
2019-02-17T11:07:51.872Z,29.05
2019-02-17T11:10:19.297Z,29.15
2019-02-17T11:12:46.699Z,28.84
2019-02-17T11:15:17.519Z,28.46
2019-02-17T11:17:44.925Z,28.15
2019-02-17T11:20:12.331Z,28.29
2019-02-17T11:22:39.743Z,27.88
2019-02-17T11:25:07.178Z,27.35
2019-02-17T11:27:34.663Z,26.63
2019-02-17T11:30:02.260Z,26.28
2019-02-17T11:32:29.270Z,25.60
2019-02-17T11:34:56.239Z,25.11
2019-02-17T11:37:23.188Z,24.93
2019-02-17T11:39:50.596Z,24.34
2019-02-17T11:42:18.086Z,24.15
2019-02-17T11:44:45.017Z,23.83
2019-02-17T11:47:11.988Z,23.66
2019-02-17T11:49:38.931Z,23.47
2019-02-17T11:52:06.014Z,23.20
2019-02-17T11:54:32.946Z,22.74
2019-02-17T11:56:59.969Z,22.50
2019-02-17T11:59:27.553Z,22.22
2019-02-17T12:01:54.899Z,22.03
2019-02-17T12:04:21.939Z,21.85
2019-02-17T12:06:49.233Z,21.74
2019-02-17T12:09:16.182Z,21.72
2019-02-17T12:11:43.109Z,21.96
2019-02-17T12:14:10.071Z,21.94
2019-02-17T12:16:37.410Z,21.59
2019-02-17T12:19:04.021Z,21.21
2019-02-17T12:24:27.018Z,19.45
2019-02-17T12:26:55.773Z,20.26
2019-02-17T12:29:28.341Z,20.60
2019-02-17T12:31:55.295Z,20.36
2019-02-17T12:34:22.787Z,20.07
2019-02-17T12:36:49.812Z,19.92
2019-02-17T12:39:17.292Z,19.61
2019-02-17T12:41:44.721Z,19.62
2019-02-17T12:44:12.143Z,19.36
2019-02-17T12:46:39.551Z,19.18
2019-02-17T12:49:06.979Z,19.27
2019-02-17T12:51:34.437Z,19.00
2019-02-17T12:54:01.840Z,18.51
2019-02-17T12:56:29.270Z,18.45
2019-02-17T12:58:56.678Z,18.32
2019-02-17T13:01:24.098Z,17.74
2019-02-17T13:03:51.494Z,18.26
2019-02-17T13:06:18.913Z,18.59
2019-02-17T13:08:46.445Z,18.44
2019-02-17T13:11:13.997Z,18.09
2019-02-17T13:13:41.465Z,17.84
2019-02-17T13:16:09.019Z,17.99
2019-02-17T13:18:36.418Z,18.25
2019-02-17T13:21:03.837Z,18.18
2019-02-17T13:23:31.271Z,17.93
2019-02-17T13:25:58.925Z,17.64
2019-02-17T13:28:26.410Z,17.14
2019-02-17T13:30:53.907Z,16.81
2019-02-17T13:33:21.226Z,16.26
2019-02-17T13:35:49.597Z,15.82
2019-02-17T13:38:17.008Z,15.64
2019-02-17T13:40:44.437Z,15.64
2019-02-17T13:43:12.101Z,15.86
2019-02-17T13:45:39.527Z,15.73
2019-02-17T13:48:06.925Z,15.42
2019-02-17T13:50:34.354Z,15.33
2019-02-17T13:53:11.380Z,15.00
2019-02-17T13:55:29.480Z,14.57
2019-02-17T13:57:56.925Z,14.72
2019-02-17T14:00:24.483Z,14.69
2019-02-17T14:02:51.936Z,15.03
2019-02-17T14:05:19.370Z,15.28
2019-02-17T14:07:47.464Z,14.86
2019-02-17T14:10:14.885Z,14.23
2019-02-17T14:12:41.823Z,13.75
2019-02-17T14:15:09.240Z,13.31
2019-02-17T14:17:36.658Z,13.13
2019-02-17T14:20:04.073Z,13.16
2019-02-17T14:22:31.492Z,13.29
2019-02-17T14:24:58.903Z,12.91
2019-02-17T14:27:26.323Z,12.48
2019-02-17T14:29:53.748Z,12.20
2019-02-17T14:32:21.164Z,11.96
2019-02-17T14:34:48.563Z,11.74
2019-02-17T14:37:16.090Z,11.48
2019-02-17T14:39:43.690Z,11.00
2019-02-17T14:42:11.742Z,10.87
2019-02-17T14:44:39.183Z,10.73
2019-02-17T14:47:06.641Z,10.44
2019-02-17T14:49:34.086Z,10.36
2019-02-17T14:52:02.137Z,10.56
2019-02-17T14:54:29.572Z,10.52
2019-02-17T14:56:57.076Z,10.36
2019-02-17T14:59:24.517Z,10.14
2019-02-17T15:01:51.943Z,10.17
2019-02-17T15:04:19.552Z,10.31
2019-02-17T15:06:47.160Z,10.26
2019-02-17T15:09:14.583Z,10.38
2019-02-17T15:11:42.002Z,10.75
2019-02-17T15:14:09.436Z,11.23
2019-02-17T15:16:36.859Z,11.35
2019-02-17T15:19:04.739Z,11.21
2019-02-17T15:21:32.154Z,11.17
2019-02-17T15:23:59.615Z,10.98
2019-02-17T15:26:27.031Z,11.01
2019-02-17T15:28:54.477Z,10.96
2019-02-17T15:31:21.880Z,10.74
2019-02-17T15:33:49.288Z,10.72
2019-02-17T15:36:16.952Z,10.71
2019-02-17T15:38:44.371Z,10.74
2019-02-17T15:41:11.780Z,10.75
2019-02-17T15:43:39.196Z,11.09
2019-02-17T15:46:06.676Z,11.51
2019-02-17T15:48:34.081Z,11.69
2019-02-17T15:51:06.591Z,11.61
2019-02-17T15:53:30.999Z,11.79
2019-02-17T15:55:56.705Z,12.08
2019-02-17T15:58:25.076Z,12.36
2019-02-17T16:00:52.875Z,12.86
2019-02-17T16:03:20.279Z,13.78
2019-02-17T16:05:47.690Z,13.49
2019-02-17T16:08:15.137Z,13.52
2019-02-17T16:10:42.555Z,13.69
2019-02-17T16:13:10.151Z,13.85
2019-02-17T16:15:37.554Z,14.39
2019-02-17T16:18:05.066Z,14.76
2019-02-17T16:20:32.525Z,15.06
2019-02-17T16:22:59.970Z,15.63
2019-02-17T16:25:27.432Z,16.45
2019-02-17T16:27:54.852Z,17.20
2019-02-17T16:30:22.282Z,17.89
2019-02-17T16:32:49.705Z,19.13
2019-02-17T16:35:17.164Z,22.43
2019-02-17T16:37:44.567Z,26.05
2019-02-17T16:40:13.747Z,28.57
2019-02-17T16:42:41.160Z,30.94
2019-02-17T16:45:08.796Z,32.33
2019-02-17T16:47:36.217Z,33.31
2019-02-17T16:50:03.691Z,34.11
2019-02-17T16:52:31.092Z,34.73
2019-02-17T16:54:58.610Z,35.33
2019-02-17T16:57:26.023Z,36.35
2019-02-17T16:59:53.478Z,36.98
2019-02-17T17:02:20.892Z,37.42
2019-02-17T17:04:49.020Z,38.01
2019-02-17T17:07:16.047Z,37.77
2019-02-17T17:09:43.439Z,37.68
2019-02-17T17:12:10.908Z,38.06
2019-02-17T17:14:39.278Z,38.27
2019-02-17T17:17:06.691Z,38.26
2019-02-17T17:19:34.183Z,38.39
2019-02-17T17:22:01.614Z,38.72
2019-02-17T17:24:29.090Z,39.26
2019-02-17T17:26:56.499Z,39.63
2019-02-17T17:29:23.936Z,40.29
2019-02-17T17:31:51.448Z,40.59
2019-02-17T17:34:19.492Z,40.06
2019-02-17T17:36:46.985Z,40.55
2019-02-17T17:39:14.402Z,40.95
2019-02-17T17:41:42.218Z,40.92
2019-02-17T17:44:10.036Z,41.14
2019-02-17T17:46:37.623Z,41.29
2019-02-17T17:49:05.058Z,41.42
2019-02-17T17:51:32.733Z,41.59
2019-02-17T17:54:00.275Z,41.63
2019-02-17T17:56:27.686Z,41.91
2019-02-17T17:58:55.082Z,42.40
2019-02-17T18:01:22.502Z,42.37
2019-02-17T18:03:49.929Z,42.25
2019-02-17T18:06:17.805Z,42.78
2019-02-17T18:08:45.222Z,43.30
2019-02-17T18:11:12.652Z,43.44
2019-02-17T18:13:40.098Z,43.67
2019-02-17T18:16:07.499Z,44.26
2019-02-17T18:18:34.990Z,44.63
2019-02-17T18:21:02.407Z,44.76
2019-02-17T18:23:29.875Z,44.81
2019-02-17T18:25:57.352Z,45.08
2019-02-17T18:28:24.761Z,45.30
2019-02-17T18:30:53.098Z,45.62
2019-02-17T18:33:20.646Z,45.68
2019-02-17T18:35:48.071Z,45.21
2019-02-17T18:38:15.646Z,45.20
2019-02-17T18:40:46.129Z,45.26
2019-02-17T18:43:10.486Z,45.40
2019-02-17T18:45:38.660Z,45.96
2019-02-17T18:48:06.083Z,46.33
2019-02-17T18:50:33.503Z,46.87
2019-02-17T18:53:00.923Z,47.24
2019-02-17T18:55:28.483Z,47.23
2019-02-17T18:57:55.908Z,47.28
2019-02-17T19:00:24.796Z,46.95
2019-02-17T19:02:52.994Z,47.09
2019-02-17T19:05:31.061Z,47.14
2019-02-17T19:07:48.009Z,47.32
2019-02-17T19:10:15.228Z,47.16
2019-02-17T19:12:42.668Z,47.45
2019-02-17T19:15:17.857Z,47.56
2019-02-17T19:17:45.317Z,47.89
2019-02-17T19:20:14.576Z,48.13
2019-02-17T19:22:41.982Z,48.43
2019-02-17T19:25:09.404Z,48.67
2019-02-17T19:27:36.817Z,48.86
2019-02-17T19:30:06.132Z,49.02
2019-02-17T19:32:33.528Z,49.43
2019-02-17T19:35:01.117Z,49.68
2019-02-17T19:37:28.569Z,50.09
2019-02-17T19:39:55.982Z,50.18
2019-02-17T19:42:23.475Z,50.10
2019-02-17T19:44:50.871Z,50.25
2019-02-17T19:47:18.313Z,50.52
2019-02-17T19:49:45.723Z,50.63
2019-02-17T19:52:13.135Z,50.62
2019-02-17T19:54:40.572Z,50.85
2019-02-17T19:57:08.092Z,51.12
2019-02-17T19:59:35.531Z,51.34
2019-02-17T20:02:02.946Z,51.75
2019-02-17T20:04:30.354Z,52.07
2019-02-17T20:06:59.896Z,52.38
2019-02-17T20:09:25.299Z,52.74
2019-02-17T20:11:52.715Z,52.88
2019-02-17T20:14:20.261Z,52.86
2019-02-17T20:16:47.773Z,53.22
2019-02-17T20:19:20.952Z,53.22
2019-02-17T20:21:48.536Z,53.36
2019-02-17T20:24:15.970Z,53.44
2019-02-17T20:26:43.790Z,53.24
2019-02-17T20:29:11.999Z,53.17
2019-02-17T20:31:38.858Z,53.28
2019-02-17T20:34:06.326Z,53.30
2019-02-17T20:36:33.808Z,53.70
2019-02-17T20:39:01.773Z,53.90
2019-02-17T20:41:29.264Z,53.92
2019-02-17T20:43:56.707Z,54.04
2019-02-17T20:46:24.154Z,54.28
2019-02-17T20:48:52.621Z,54.43
2019-02-17T20:51:20.100Z,54.76
2019-02-17T20:53:47.495Z,54.72
2019-02-17T20:56:14.978Z,54.79
2019-02-17T20:58:42.478Z,55.17
2019-02-17T21:01:09.880Z,55.12
2019-02-17T21:03:37.874Z,55.46
2019-02-17T21:06:12.457Z,55.74
2019-02-17T21:08:32.799Z,56.31
2019-02-17T21:11:00.234Z,56.16
2019-02-17T21:13:27.735Z,56.07
2019-02-17T21:15:55.239Z,56.46
2019-02-17T21:18:22.931Z,56.67
2019-02-17T21:20:50.423Z,56.58
2019-02-17T21:23:17.840Z,56.65
2019-02-17T21:25:45.240Z,57.13
2019-02-17T21:28:12.671Z,57.57
2019-02-17T21:30:40.081Z,57.71
2019-02-17T21:33:07.533Z,57.78
2019-02-17T21:35:34.975Z,57.83
2019-02-17T21:38:02.477Z,57.65
2019-02-17T21:40:29.891Z,57.92
2019-02-17T21:42:57.319Z,58.39
2019-02-17T21:45:24.846Z,58.43
2019-02-17T21:47:52.300Z,58.50
2019-02-17T21:50:20.406Z,58.54
2019-02-17T21:52:48.188Z,58.83
2019-02-17T21:55:16.155Z,58.85
2019-02-17T21:57:43.629Z,58.56
2019-02-17T22:00:11.132Z,58.46
2019-02-17T22:02:38.527Z,58.84
2019-02-17T22:05:05.943Z,59.20
2019-02-17T22:07:35.051Z,59.17
2019-02-17T22:10:02.044Z,59.40
2019-02-17T22:12:29.524Z,59.33
2019-02-17T22:14:57.113Z,59.47
2019-02-17T22:17:24.523Z,59.29
2019-02-17T22:19:52.020Z,59.08
2019-02-17T22:22:19.447Z,59.05
2019-02-17T22:24:47.002Z,58.96
2019-02-17T22:27:14.438Z,59.39
2019-02-17T22:29:41.841Z,59.93
2019-02-17T22:32:09.312Z,60.10
2019-02-17T22:34:36.717Z,60.05
2019-02-17T22:37:04.177Z,60.07
2019-02-17T22:39:31.637Z,60.25
2019-02-17T22:41:59.052Z,60.40
2019-02-17T22:44:26.518Z,60.56
2019-02-17T22:46:53.946Z,60.18
2019-02-17T22:49:21.373Z,60.19
2019-02-17T22:51:48.789Z,60.46
2019-02-17T22:54:16.215Z,60.68
2019-02-17T22:56:43.721Z,60.78
2019-02-17T22:59:11.156Z,60.82
2019-02-17T23:01:38.547Z,60.62
2019-02-17T23:04:05.977Z,60.69
2019-02-17T23:06:33.455Z,60.90
2019-02-17T23:09:00.874Z,61.27
2019-02-17T23:11:28.292Z,61.59
2019-02-17T23:13:55.920Z,61.85
2019-02-17T23:16:23.331Z,61.72
2019-02-17T23:18:50.756Z,61.71
2019-02-17T23:21:18.215Z,61.66
2019-02-17T23:23:45.763Z,61.74
2019-02-17T23:26:13.187Z,61.65
2019-02-17T23:28:40.769Z,61.75
2019-02-17T23:31:08.217Z,62.14
2019-02-17T23:33:35.627Z,62.37
2019-02-17T23:36:03.196Z,62.44
2019-02-17T23:38:30.599Z,62.32
2019-02-17T23:40:58.090Z,62.65
2019-02-17T23:43:25.510Z,62.88
2019-02-17T23:45:53.080Z,62.97
2019-02-17T23:48:20.551Z,62.88
2019-02-17T23:50:48.008Z,62.90
2019-02-17T23:53:15.435Z,62.80
2019-02-17T23:55:42.881Z,63.00
2019-02-17T23:58:10.267Z,63.07
